Date,TemperatureHighF,TemperatureAvgF,TemperatureLowF,DewpointHighF,DewpointAvgF,DewpointLowF,HumidityHigh,HumidityAvg,HumidityLow,PressureMaxIn,PressureMinIn,WindSpeedMaxMPH,WindSpeedAvgMPH,GustSpeedMaxMPH,PrecipitationSumIn
2013-1-1,32,24,10,27,15,1,93,70,51,29.78,29.54,15,6,24,0.04
2013-1-2,17,8,-2,4,-1,-6,87,66,51,29.96,29.76,13,4,21,0.00
2013-1-3,20,8,-3,8,0,-7,83,71,52,30.03,29.90,6,1,14,0.00
2013-1-4,34,20,-1,27,14,-4,90,80,71,29.90,29.66,15,5,22,0.00
2013-1-5,33,30,21,27,19,7,79,63,43,30.16,29.65,13,6,22,0.00
2013-1-6,23,23,23,21,21,21,92,92,92,29.93,29.93,1,1,0,0.00
2013-1-7,23,14,-1,21,9,-4,91,80,60,30.41,29.93,6,2,5,0.00
2013-1-8,40,29,8,32,24,5,95,81,58,30.35,30.15,17,5,31,0.12
2013-1-9,41,30,13,37,26,11,95,87,71,30.40,29.82,14,-26,21,0.04
2013-1-10,43,38,29,32,26,19,81,64,50,30.49,29.82,14,7,29,0.02
2013-1-11,35,30,21,27,20,16,82,69,50,30.51,30.27,7,2,11,0.00
2013-1-12,40,36,32,36,32,27,95,86,77,30.28,30.09,4,1,11,0.00
2013-1-13,46,40,34,44,39,33,98,97,95,30.13,29.93,11,2,17,0.00
2013-1-14,53,44,35,49,39,25,98,83,50,30.17,29.84,13,4,19,0.01
2013-1-15,36,31,26,26,23,19,91,72,56,30.30,30.16,0,0,11,0.00
2013-1-16,37,31,26,35,26,19,95,82,65,30.27,29.74,2,0,8,0.28
2013-1-17,40,31,12,36,24,-10,96,76,33,30.13,29.71,9,2,19,0.37
2013-1-18,17,11,4,0,-5,-10,71,48,37,30.37,30.09,9,2,21,0.01
2013-1-19,35,28,15,30,23,0,94,84,49,30.36,29.89,12,2,22,0.01
2013-1-20,46,37,24,40,28,6,97,74,44,29.89,29.41,18,7,30,0.01
2013-1-21,24,18,13,13,2,-4,85,50,33,30.01,29.78,14,6,25,0.01
2013-1-22,18,12,3,14,1,-9,86,63,45,29.95,29.76,9,3,19,0.00
2013-1-23,9,3,-2,-8,-13,-15,57,46,37,30.02,29.95,13,4,22,0.00
2013-1-24,11,3,-3,-8,-11,-14,61,51,36,30.03,29.85,11,2,19,0.00
2013-1-25,21,11,3,2,-2,-9,65,54,39,30.12,30.02,0,0,1,0.00
2013-1-26,19,12,6,-1,-3,-5,62,49,35,30.06,29.93,0,0,1,0.00
2013-1-27,22,15,7,5,1,-4,66,54,45,30.36,30.05,0,0,0,0.00
2013-1-28,26,21,11,20,8,-3,90,61,29,30.37,30.06,0,0,0,0.00
2013-1-29,36,26,14,25,20,12,92,79,54,30.21,30.05,0,0,0,0.01
2013-1-30,54,44,31,53,42,26,97,94,82,30.17,29.45,0,0,0,0.36
2013-1-31,53,53,53,52,52,52,96,95,95,29.45,29.45,0,0,0,0.36
2013-2-2,24,23,23,19,16,11,85,74,58,30.09,30.05,0,-999,0,0.00
2013-2-3,30,24,20,21,18,15,90,80,68,30.05,29.65,0,-999,0,0.01
2013-2-4,28,22,15,15,8,-4,80,58,40,29.79,29.55,0,-999,0,0.01
2013-2-5,22,14,10,6,-2,-6,76,48,32,30.02,29.79,0,-999,0,0.00
2013-2-6,35,23,13,28,12,-2,88,65,36,30.22,29.89,0,-999,0,0.01
2013-2-7,17,10,6,2,-8,-15,60,44,27,30.60,30.22,4,-749,10,0.01
2013-2-8,20,13,7,17,6,-7,89,76,50,30.60,29.91,15,6,32,0.00
2013-2-9,16,13,10,14,10,-100,92,89,89,30.01,29.63,17,10,36,0.00
2013-2-10,32,20,10,31,18,8,97,93,90,30.33,30.01,8,3,18,0.00
2013-2-11,38,22,0,37,20,-3,97,93,87,30.33,29.54,10,1,20,0.42
2013-2-12,43,38,33,37,33,29,98,85,64,29.71,29.47,11,4,23,0.14
2013-2-13,42,34,29,29,27,25,90,75,50,29.76,29.69,9,2,15,0.01
2013-2-14,39,33,25,28,22,18,91,65,43,29.97,29.69,7,2,15,0.00
2013-2-15,42,37,23,37,34,21,94,88,78,29.97,29.91,9,4,16,0.00
2013-2-16,36,32,28,34,29,25,97,89,78,29.91,29.74,5,2,12,0.00
2013-2-17,27,22,18,25,19,14,92,89,82,29.74,28.98,14,7,39,0.00
2013-2-18,29,24,18,14,7,3,84,48,39,29.90,29.26,16,10,40,0.00
2013-2-19,40,30,20,38,15,3,94,56,28,30.06,29.69,12,4,23,0.07
2013-2-20,43,37,29,42,30,17,96,76,58,29.69,29.36,12,7,28,0.97
2013-2-21,35,28,23,29,19,13,84,69,56,29.94,29.56,12,5,21,0.10
2013-2-22,37,32,25,22,21,19,81,64,49,30.36,30.28,8,3,18,0.00
2013-2-23,33,29,21,28,25,18,91,83,78,30.35,30.06,9,2,13,0.00
2013-2-24,32,30,28,29,27,24,93,89,79,30.06,29.78,9,3,18,0.02
2013-2-25,38,27,15,24,17,10,91,68,31,30.22,29.85,7,2,11,0.11
2013-2-26,40,29,15,28,22,13,93,78,55,30.35,30.22,5,1,8,0.01
2013-2-27,39,33,22,31,27,20,94,82,56,30.29,29.73,12,-44,30,0.00
2013-2-28,40,37,33,39,35,31,96,95,93,29.73,29.49,12,6,22,0.48
2013-3-1,34,32,31,32,30,29,95,93,90,29.61,29.48,9,4,16,0.05
2013-3-2,36,33,31,34,32,29,96,93,87,29.58,29.54,6,2,14,0.15
2013-3-3,40,36,33,36,34,32,96,93,84,29.56,29.45,4,1,9,0.06
2013-3-4,35,33,32,33,31,29,95,92,86,29.61,29.40,6,3,14,0.22
2013-3-5,43,37,34,36,34,32,94,88,73,30.11,29.62,10,4,15,0.16
2013-3-6,38,35,33,33,29,26,91,81,73,30.27,30.11,13,7,24,0.00
2013-3-7,38,34,32,27,26,25,77,71,61,30.22,30.07,13,9,28,0.00
2013-3-8,46,37,31,27,24,22,76,62,41,30.19,30.03,13,9,27,0.00
2013-3-9,42,34,28,28,24,22,86,70,52,30.37,30.17,9,5,18,0.00
2013-3-10,36,31,28,29,26,23,88,81,68,30.42,30.30,6,2,10,0.00
2013-3-11,43,38,33,38,35,29,93,86,79,30.32,30.17,8,5,17,0.00
2013-3-12,50,45,40,46,42,38,95,90,80,30.18,29.83,10,4,22,0.49
2013-3-13,48,43,30,47,42,29,97,95,87,29.83,29.61,11,4,24,1.34
2013-3-14,43,34,25,31,27,19,97,78,50,29.67,29.58,14,3,18,0.01
2013-3-15,34,25,18,19,14,7,82,63,38,29.73,29.57,11,4,19,0.01
2013-3-16,34,28,20,21,15,10,87,61,40,29.87,29.59,10,3,18,0.01
2013-3-17,31,24,15,12,6,-3,80,48,29,30.27,29.87,12,4,29,0.00
2013-3-18,34,23,11,15,3,-3,69,42,26,30.41,30.27,11,3,25,0.00
2013-3-19,30,27,24,26,22,11,95,82,45,30.29,29.63,13,7,25,0.00
2013-3-20,33,25,18,29,22,16,94,90,84,29.68,29.53,14,7,25,0.16
2013-3-21,38,31,19,29,24,17,92,76,45,29.75,29.57,10,4,15,0.12
2013-3-22,40,31,22,27,20,16,89,64,38,29.59,29.52,12,4,23,0.03
2013-3-23,40,33,26,25,21,16,72,60,46,29.58,29.39,16,-69,28,0.00
2013-3-24,44,37,30,28,25,23,85,63,45,29.74,29.54,10,4,19,0.00
2013-3-25,42,35,26,32,28,24,94,77,59,29.74,29.57,9,3,18,0.00
2013-3-26,48,39,31,31,27,23,84,62,44,29.66,29.51,11,4,20,0.00
2013-3-27,41,35,27,39,33,25,94,91,84,29.82,29.65,7,2,22,0.14
2013-3-28,49,40,31,36,33,29,93,78,54,29.92,29.82,6,2,13,0.04
2013-3-29,53,43,30,39,33,28,94,69,47,29.96,29.89,8,2,16,0.01
2013-3-30,54,41,28,35,28,20,92,64,27,30.05,29.93,11,4,18,0.00
2013-3-31,51,38,23,38,25,-100,93,68,29,30.10,29.89,11,3,15,0.00
2013-4-1,47,42,36,43,39,28,96,89,79,29.89,29.46,21,6,29,0.63
2013-4-2,38,32,27,28,16,12,77,52,38,29.77,29.60,17,9,31,0.04
2013-4-3,41,33,28,19,16,12,68,49,38,29.95,29.74,19,11,33,0.00
2013-4-4,49,38,30,34,18,10,80,48,23,30.14,29.95,18,9,27,0.00
2013-4-5,49,42,37,35,33,25,81,69,52,29.96,29.63,20,8,27,0.00
2013-4-6,39,33,25,25,12,3,61,42,22,30.33,29.73,15,7,33,0.00
2013-4-7,43,34,22,38,25,11,85,68,50,30.34,29.96,17,7,26,0.00
2013-4-8,59,49,37,40,37,30,93,66,41,30.14,29.87,14,5,22,0.00
2013-4-9,43,39,33,41,37,30,96,92,80,30.15,29.90,8,2,15,0.33
2013-4-10,53,44,39,46,41,38,97,91,76,29.98,29.87,9,3,14,0.06
2013-4-11,51,44,36,42,24,15,96,51,27,30.16,29.85,13,3,21,0.01
2013-4-12,40,35,31,32,24,14,94,67,41,30.26,29.92,14,5,19,0.21
2013-4-13,42,37,33,37,35,31,95,90,79,29.92,29.76,12,4,21,0.24
2013-4-14,47,40,36,43,38,34,96,92,78,30.14,29.90,6,2,10,0.11
2013-4-15,47,39,31,42,36,30,97,90,74,30.43,30.14,8,3,13,0.07
2013-4-16,50,44,39,45,40,36,92,85,62,30.42,29.93,19,9,31,0.11
2013-4-17,61,51,39,47,34,25,94,57,29,30.34,29.92,19,6,29,0.11
2013-4-18,48,40,29,37,30,23,83,69,38,30.47,30.18,8,4,14,0.01
2013-4-19,59,52,46,58,49,35,96,88,63,30.18,29.70,19,10,34,0.00
2013-4-20,57,51,42,56,46,32,97,84,60,30.09,29.58,19,8,35,0.31
2013-4-21,50,40,29,32,24,15,89,57,27,30.68,30.09,12,3,20,0.02
2013-4-22,47,37,26,37,28,21,92,70,42,30.81,30.68,9,4,17,0.00
2013-4-23,44,38,27,40,35,25,96,88,75,30.69,30.21,11,5,17,0.06
2013-4-24,55,48,42,54,46,40,97,95,93,30.21,29.75,13,6,21,0.66
2013-4-25,62,52,43,50,42,31,97,72,34,30.26,29.80,19,6,29,0.18
2013-4-26,56,45,33,39,34,30,91,68,42,30.41,30.26,10,3,17,0.02
2013-4-27,60,45,29,38,33,27,96,67,36,30.42,30.29,10,3,15,0.00
2013-4-28,58,46,31,44,37,-100,96,75,51,30.33,30.24,7,2,13,0.00
2013-4-29,60,47,32,46,39,30,96,75,46,30.29,30.22,8,2,13,0.00
2013-4-30,64,49,32,45,36,28,97,67,30,30.36,30.25,9,2,15,0.00
2013-5-1,66,49,32,42,34,24,95,64,24,30.45,30.36,10,3,15,0.00
2013-5-2,60,47,36,47,40,34,96,78,53,30.53,30.41,7,3,14,0.00
2013-5-3,61,49,40,47,41,36,87,75,55,30.55,30.37,10,4,17,0.00
2013-5-4,54,46,36,42,38,33,92,75,54,30.41,30.32,11,4,17,0.00
2013-5-5,60,47,31,42,37,29,96,72,48,30.33,30.25,11,4,17,0.00
2013-5-6,61,52,43,49,44,41,96,75,58,30.27,30.17,11,6,17,0.00
2013-5-7,67,53,42,53,48,41,97,84,56,30.18,30.09,14,6,21,0.00
2013-5-8,68,54,45,60,52,44,97,91,74,30.25,30.16,9,3,16,0.00
2013-5-9,55,53,49,54,52,48,98,96,93,30.16,29.92,8,2,11,0.47
2013-5-10,62,53,49,59,50,-100,98,94,82,29.97,29.88,9,2,15,0.28
2013-5-11,57,52,47,56,51,46,98,96,91,29.96,29.71,13,6,24,0.17
2013-5-12,57,53,50,56,51,-100,98,98,96,29.72,29.52,10,3,15,0.25
2013-5-13,55,48,39,49,39,35,98,72,50,29.98,29.67,22,9,31,0.02
2013-5-14,57,48,41,40,35,31,91,61,39,29.98,29.90,9,2,18,0.00
2013-5-15,61,49,34,48,36,30,94,63,32,29.98,29.70,15,7,26,0.31
2013-5-16,69,52,48,57,28,-100,96,79,48,29.74,29.54,14,4,22,0.31
2013-5-17,61,52,41,46,35,-100,88,66,45,30.18,29.74,9,3,20,0.00
2013-5-18,57,47,36,47,40,34,95,80,62,30.35,30.18,9,4,16,0.00
2013-5-19,56,47,33,48,43,32,96,85,63,30.38,30.26,9,4,17,0.00
2013-5-20,59,52,49,56,51,47,97,95,90,30.26,29.93,10,4,19,0.81
2013-5-21,52,49,48,51,48,46,97,96,93,30.06,29.99,7,3,14,0.18
2013-5-22,53,50,48,51,49,47,97,95,92,30.05,29.93,10,5,17,0.57
2013-5-23,60,54,47,59,52,46,98,96,91,29.96,29.83,12,5,18,0.01
2013-5-24,61,57,50,60,56,48,98,97,94,29.83,29.67,21,7,33,1.37
2013-5-25,51,50,49,50,49,48,97,96,94,29.81,29.68,15,9,26,0.50
2013-5-26,51,48,44,50,47,42,97,93,83,29.90,29.61,9,4,15,0.31
2013-5-27,66,52,41,46,41,35,96,70,33,30.14,29.90,12,4,24,0.04
2013-5-28,70,54,35,53,41,34,97,68,31,30.22,30.14,13,4,22,0.01
2013-5-29,53,50,43,52,49,41,98,96,87,30.23,29.99,6,2,13,0.37
2013-5-30,81,64,50,67,58,49,98,85,56,30.00,29.93,11,3,17,0.03
2013-5-31,86,71,54,69,62,53,98,74,48,30.01,29.85,16,6,23,0.00
2013-6-1,84,70,57,71,62,56,97,78,57,29.89,29.80,18,4,26,0.00
2013-6-2,78,67,58,70,60,-100,94,82,72,29.80,29.70,17,6,26,0.00
2013-6-3,70,62,57,66,60,56,96,91,78,29.81,29.70,14,6,22,0.01
2013-6-4,66,59,49,59,48,41,97,68,44,29.98,29.73,13,4,25,0.01
2013-6-5,66,56,49,48,45,42,82,68,47,30.14,29.98,14,6,21,0.00
2013-6-6,67,56,43,54,48,41,97,76,45,30.20,30.13,7,2,12,0.00
2013-6-7,61,56,52,54,50,45,95,84,61,30.16,29.98,11,3,16,0.29
2013-6-8,64,57,53,60,55,52,97,93,79,29.98,29.62,12,6,22,1.76
2013-6-9,65,58,51,59,54,50,96,88,77,30.10,29.94,8,3,14,0.01
2013-6-10,69,59,50,59,53,49,98,82,63,30.20,30.04,10,3,15,0.01
2013-6-11,55,54,52,54,53,51,97,95,91,30.05,29.51,15,7,24,0.65
2013-6-12,59,55,52,58,54,51,97,95,91,29.69,29.45,8,4,18,0.50
2013-6-13,69,60,53,59,54,51,95,81,64,29.77,29.69,9,3,16,0.20
2013-6-14,62,56,51,56,52,47,97,85,67,29.73,29.66,6,2,10,0.01
2013-6-15,76,62,44,51,47,43,97,64,34,29.85,29.69,13,4,24,0.00
2013-6-16,75,63,51,58,53,47,92,72,44,29.88,29.71,7,3,14,0.00
2013-6-17,77,64,55,63,57,-100,97,80,58,29.83,29.70,11,4,20,0.56
2013-6-18,66,58,54,58,55,53,98,90,62,29.92,29.81,5,1,8,0.32
2013-6-19,73,63,49,55,49,41,96,66,32,30.10,29.90,10,3,18,0.00
2013-6-20,75,61,45,57,50,44,96,73,44,30.22,30.10,8,2,15,0.00
2013-6-22,75,67,60,68,62,56,92,83,70,30.16,30.09,6,2,9,0.00
2013-6-23,66,60,57,65,59,55,97,95,89,30.12,29.94,6,1,9,0.14
2013-6-24,86,72,61,74,67,60,98,86,62,29.94,29.77,11,2,18,0.10
2013-6-25,86,76,64,73,67,62,96,76,53,29.82,29.67,11,4,18,0.10
2013-6-26,73,66,60,71,64,59,98,95,92,29.86,29.67,9,3,14,0.15
2013-6-27,61,57,55,58,56,54,97,95,91,29.89,29.84,11,4,16,0.04
2013-6-28,62,59,56,61,58,55,98,97,96,29.87,29.59,14,6,19,2.34
2013-6-29,69,62,59,68,61,58,99,97,94,29.70,29.58,12,3,21,0.07
2013-6-30,72,65,61,69,64,60,99,96,87,29.93,29.70,8,4,15,0.01
2013-7-1,75,65,61,70,63,60,99,95,85,30.09,29.92,5,1,11,0.03
2013-7-2,65,63,58,64,62,57,98,98,96,30.20,30.09,1,0,3,0.35
2013-7-3,76,65,58,70,62,57,98,91,79,30.18,30.09,7,2,11,0.01
2013-7-4,89,75,60,74,67,59,98,79,55,30.13,30.02,12,4,18,0.00
2013-7-5,90,77,64,76,70,63,98,81,57,30.06,29.96,12,4,20,0.06
2013-7-6,88,77,68,74,70,67,98,81,53,29.98,29.86,11,4,19,0.06
2013-7-7,88,79,67,71,67,62,85,68,49,29.91,29.84,11,5,20,0.00
2013-7-8,77,68,61,69,62,-100,95,86,75,30.06,29.87,7,2,10,0.08
2013-7-9,68,64,61,65,62,59,96,93,89,30.12,30.06,6,-63,10,0.01
2013-7-10,66,61,61,63,58,-100,98,93,90,30.09,29.79,7,2,13,0.01
2013-7-11,77,69,62,74,67,61,99,95,85,29.94,29.74,5,1,9,0.06
2013-7-12,80,69,58,66,61,56,97,75,51,30.18,29.94,10,3,14,0.05
2013-7-13,79,66,54,65,58,53,98,79,54,30.29,30.19,6,1,9,0.00
2013-7-14,86,72,59,74,64,57,95,78,58,30.24,30.12,3,0,7,0.00
2013-7-15,91,76,61,71,66,60,97,75,42,30.13,29.98,6,1,12,0.00
2013-7-16,90,76,67,73,66,60,93,75,48,30.14,30.01,4,0,10,0.00
2013-7-17,79,71,63,68,63,57,95,78,65,30.16,29.88,7,2,16,0.46
2013-7-18,85,74,66,71,65,57,98,78,51,29.96,29.86,4,0,7,0.10
2013-7-19,84,74,65,75,69,64,97,86,70,29.93,29.58,7,2,15,0.08
2013-7-20,85,76,64,74,68,-100,98,79,63,29.69,29.53,6,2,17,0.38
2013-7-21,75,65,56,64,58,53,98,79,58,29.99,29.71,3,0,11,0.38
2013-7-22,73,62,52,64,57,51,97,86,61,30.02,29.92,4,0,8,0.00
2013-7-23,65,63,57,65,62,55,100,98,94,29.93,29.49,1,0,5,0.89
2013-7-24,79,69,61,72,65,51,99,88,71,29.91,29.51,5,1,12,0.16
2013-7-25,74,60,54,61,48,-100,96,74,58,30.09,29.91,2,-78,7,0.02
2013-7-26,68,65,60,67,64,59,97,96,95,30.06,29.80,3,1,10,1.71
2013-7-27,79,69,61,68,63,60,97,83,64,30.01,29.80,5,2,12,0.05
2013-7-28,68,64,60,66,63,59,99,96,90,30.04,29.98,3,0,11,0.07
2013-7-29,70,64,61,66,63,60,99,95,85,30.03,29.95,3,0,8,0.02
2013-7-30,80,68,60,68,63,58,99,84,51,30.01,29.93,7,1,15,0.00
2013-7-31,81,68,56,62,57,55,95,72,44,30.05,29.98,9,3,16,0.00
2013-8-1,75,65,56,67,61,55,98,87,68,30.01,29.88,7,1,14,0.00
2013-8-2,66,64,61,65,63,60,99,97,96,29.88,29.73,0,0,0,0.35
2013-8-3,74,64,58,66,61,56,99,92,68,29.78,29.67,0,0,3,0.09
2013-8-4,77,64,54,65,58,54,99,83,54,29.74,29.67,7,1,18,0.05
2013-8-5,72,62,52,56,54,49,96,76,53,29.95,29.73,7,2,20,0.02
2013-8-6,76,63,48,57,52,46,94,68,46,30.11,29.96,8,2,17,0.00
2013-8-7,75,62,50,62,55,48,96,79,52,30.17,30.10,6,1,11,0.00
2013-8-8,64,61,56,62,60,55,98,96,92,30.11,30.00,4,1,8,0.16
2013-8-9,69,65,62,68,64,61,99,97,92,30.01,29.64,9,2,17,1.47
2013-8-10,81,71,56,69,59,51,98,71,38,29.91,29.65,11,4,23,0.45
2013-8-11,78,65,50,57,54,48,96,69,42,29.97,29.90,8,3,17,0.01
2013-8-12,81,65,54,63,57,52,96,77,44,29.95,29.85,8,1,15,0.00
2013-8-13,71,61,54,66,58,-100,98,92,83,29.87,29.67,5,1,9,0.00
2013-8-14,73,63,58,66,58,-100,98,87,63,29.78,29.55,9,2,18,0.00
2013-8-15,74,58,50,56,41,-100,94,68,45,30.03,29.78,12,3,19,0.00
2013-8-16,76,62,51,61,52,-100,97,77,49,30.14,30.02,7,2,14,0.00
2013-8-17,77,64,51,62,54,50,98,73,43,30.22,30.14,7,2,15,0.00
2013-8-18,76,63,51,61,54,-100,96,77,46,30.22,29.99,7,1,13,0.00
2013-8-19,82,65,56,66,50,-100,97,79,53,29.99,29.80,10,2,17,0.00
2013-8-20,82,70,61,68,61,-100,96,78,56,30.02,29.87,6,2,13,0.00
2013-8-21,84,70,58,68,62,56,96,78,52,30.07,29.94,8,2,14,0.00
2013-8-22,83,71,59,68,64,58,96,79,54,29.94,29.70,7,2,15,0.00
2013-8-23,76,68,59,66,58,50,96,73,47,30.07,29.69,6,2,16,0.00
2013-8-24,76,62,48,54,49,45,95,68,35,30.24,30.07,5,2,14,0.00
2013-8-25,76,62,49,59,51,-100,95,72,39,30.29,30.11,7,2,13,0.00
2013-8-26,73,64,56,65,60,53,94,88,76,30.11,29.81,7,2,16,0.00
2013-8-27,79,68,58,68,63,57,97,85,66,29.83,29.80,4,1,9,0.00
2013-8-28,76,68,64,67,64,61,97,88,74,29.95,29.85,4,2,10,0.10
2013-8-29,66,62,53,63,58,51,97,89,77,30.07,29.95,7,3,15,0.10
2013-8-30,71,61,49,64,56,48,97,87,69,29.98,29.73,7,3,13,0.01
2013-8-31,75,66,63,69,64,61,98,93,76,29.79,29.72,7,2,17,0.36
2013-9-1,78,68,63,72,65,-100,99,93,79,29.90,29.72,5,1,8,0.03
2013-9-2,65,63,61,64,62,60,98,98,97,29.93,29.71,6,3,16,2.40
2013-9-3,73,66,63,70,65,62,99,97,88,29.72,29.65,6,1,12,1.25
2013-9-4,77,68,61,65,61,57,99,82,53,29.83,29.67,10,2,19,0.01
2013-9-5,66,58,45,59,53,44,97,85,49,30.06,29.80,5,1,11,0.50
2013-9-6,65,54,39,51,44,38,97,74,41,30.15,29.99,9,2,15,0.01
2013-9-7,71,60,51,58,54,50,97,80,54,29.99,29.73,7,2,13,0.00
2013-9-8,62,56,43,59,51,-100,96,86,57,29.99,29.63,12,2,24,0.34
2013-9-9,65,52,39,53,45,38,97,78,47,30.14,29.98,9,3,16,0.04
2013-9-10,66,60,56,60,57,53,96,88,79,30.08,30.01,13,3,23,0.00
2013-9-11,78,65,58,72,63,57,98,92,77,30.02,29.85,10,1,24,0.07
2013-9-12,74,67,64,69,65,62,97,94,84,29.96,29.63,10,2,20,0.31
2013-9-13,66,64,59,65,63,58,98,97,94,29.63,29.53,7,1,14,0.66
2013-9-14,71,61,53,61,57,51,98,87,65,29.95,29.60,7,2,14,0.15
2013-9-15,66,54,46,54,48,-100,98,86,57,30.06,29.94,6,1,16,0.00
2013-9-16,64,54,46,57,51,38,97,88,70,30.18,29.91,5,1,15,0.03
2013-9-17,66,48,35,50,41,33,95,77,46,30.32,30.18,6,1,17,0.01
2013-9-18,54,43,40,51,42,39,97,95,84,30.24,30.03,3,1,6,0.01
2013-9-19,76,59,44,55,49,42,96,74,45,30.05,29.96,5,2,11,0.01
2013-9-20,76,59,46,59,52,44,97,79,51,30.05,29.97,6,1,12,0.00
2013-9-21,68,59,50,60,57,48,98,93,74,30.01,29.77,9,4,19,0.00
2013-9-22,64,61,54,63,58,-100,96,92,89,29.77,29.56,18,5,28,0.76
2013-9-23,59,51,44,51,44,40,91,77,61,29.84,29.65,10,4,23,0.01
2013-9-24,52,49,47,46,44,41,91,81,72,29.83,29.75,8,3,18,0.04
2013-9-25,60,52,47,50,47,44,93,82,66,29.90,29.78,5,1,15,0.01
2013-9-26,64,54,45,52,48,43,96,81,63,30.06,29.90,5,2,16,0.00
2013-9-27,73,60,51,58,52,48,94,79,51,30.19,30.06,5,2,14,0.00
2013-9-28,71,56,45,59,51,44,97,83,59,30.29,30.19,5,1,8,0.00
2013-9-29,69,53,41,58,46,-100,98,82,49,30.23,30.08,5,1,9,0.01
2013-9-30,66,55,42,55,50,41,97,86,61,30.10,29.92,6,1,11,0.01
2013-10-1,57,54,51,55,52,49,94,93,91,29.92,29.78,2,0,5,0.00
2013-10-2,78,61,48,62,54,47,98,79,47,29.81,29.65,9,2,19,0.00
2013-10-3,74,59,46,53,49,44,95,72,40,30.00,29.81,11,3,22,0.00
2013-10-4,70,56,44,54,48,42,96,76,46,30.04,29.96,7,2,12,0.00
2013-10-5,62,54,46,50,46,41,92,74,57,30.11,30.03,3,1,7,0.00
2013-10-6,60,51,43,47,41,36,93,71,46,30.25,30.10,5,2,11,0.12
2013-10-7,64,57,48,63,56,46,97,94,91,30.20,29.77,17,7,29,0.27
2013-10-8,65,51,39,64,37,-100,97,72,48,30.34,29.76,11,4,27,0.04
2013-10-9,59,46,34,47,40,33,96,81,51,30.44,30.32,6,2,11,0.00
2013-10-10,62,48,35,50,42,34,96,84,52,30.32,30.15,7,1,12,0.00
2013-10-11,71,53,41,56,49,40,96,86,53,30.16,30.06,4,0,8,0.00
2013-10-12,58,52,40,52,48,39,95,87,68,30.38,30.15,9,3,18,0.00
2013-10-13,57,46,39,48,41,-100,97,84,62,30.43,30.35,7,1,13,0.00
2013-10-14,59,48,35,50,44,34,96,83,66,30.35,30.20,7,2,13,0.01
2013-10-15,63,54,46,55,50,45,97,88,67,30.23,30.17,4,1,10,0.01
2013-10-16,57,53,48,54,52,47,98,95,87,30.19,29.84,6,1,12,0.05
2013-10-17,59,55,51,57,53,50,98,96,91,29.84,29.71,5,1,10,0.02
2013-10-18,63,54,46,60,52,45,99,92,63,29.75,29.52,12,2,23,0.28
2013-10-19,62,53,42,50,45,41,97,76,51,29.87,29.74,8,2,17,0.01
2013-10-20,62,54,43,54,42,-100,94,69,37,29.87,29.62,13,3,23,0.01
2013-10-21,59,50,37,46,40,34,94,72,46,30.01,29.87,12,2,21,0.01
2013-10-22,60,53,46,55,50,44,97,89,80,29.97,29.64,12,3,24,0.03
2013-10-23,53,43,33,44,37,32,98,82,47,29.72,29.52,7,1,11,0.03
2013-10-24,48,42,32,41,33,27,96,72,46,29.73,29.52,9,3,20,0.01
2013-10-25,51,44,32,36,33,28,86,67,51,30.01,29.73,8,3,24,0.00
2013-10-26,50,41,29,42,34,27,96,79,54,30.06,29.83,11,2,23,0.03
2013-10-27,54,45,37,45,38,-100,96,79,58,29.92,29.72,10,3,19,0.09
2013-10-28,54,41,32,42,31,-100,92,71,53,30.28,29.91,12,3,26,0.01
2013-10-29,45,34,25,29,25,22,92,72,41,30.41,30.28,6,2,12,0.00
2013-10-30,47,35,25,32,27,23,95,76,43,30.31,30.11,6,2,12,0.00
2013-10-31,58,41,25,56,39,23,95,91,73,30.21,29.75,12,4,23,0.37
2013-11-1,63,60,57,61,57,53,96,91,82,29.76,29.31,16,9,38,0.91
2013-11-2,61,52,41,53,47,40,96,82,57,29.69,29.46,7,2,16,0.01
2013-11-3,47,37,31,41,24,-100,92,63,41,30.34,29.68,6,2,18,0.04
2013-11-4,41,31,24,24,20,18,88,65,43,30.66,30.34,6,2,17,0.01
2013-11-5,46,35,23,36,29,21,93,80,62,30.68,30.47,8,2,13,0.00
2013-11-6,53,48,32,50,43,30,95,85,78,30.45,29.96,9,4,20,3.36
2013-11-7,58,52,34,55,49,33,95,91,86,29.96,29.57,13,5,26,0.18
2013-11-8,44,37,29,35,29,25,96,73,53,29.87,29.67,10,3,24,0.03
2013-11-9,43,36,26,27,23,-100,89,64,43,30.06,29.86,11,4,22,0.00
2013-11-10,46,38,27,44,36,24,97,92,81,30.05,29.64,11,2,18,0.18
2013-11-11,46,38,35,36,33,30,97,84,60,29.92,29.65,11,3,22,0.01
2013-11-12,46,34,27,36,24,16,93,64,57,30.00,29.76,11,5,23,0.01
2013-11-13,34,28,24,17,15,13,74,58,44,30.13,30.00,11,4,20,0.00
2013-11-14,46,36,25,31,26,17,92,66,51,30.04,29.91,10,3,19,0.00
2013-11-15,51,36,26,40,30,25,95,80,43,30.14,30.02,5,1,13,0.00
2013-11-16,49,36,28,42,31,-100,96,88,68,30.30,30.14,3,0,7,0.00
2013-11-17,50,42,28,49,40,27,97,93,84,30.34,29.97,10,3,19,0.03
2013-11-18,58,52,40,57,50,39,97,92,80,29.97,29.43,18,6,34,0.76
2013-11-19,41,36,32,40,26,19,97,67,47,30.07,29.49,14,6,28,0.02
2013-11-20,39,31,24,19,14,7,77,50,29,30.57,30.07,11,4,29,0.00
2013-11-21,48,32,21,28,20,13,88,66,26,30.58,30.30,8,1,13,3.47
2013-11-22,42,34,27,30,26,20,92,74,44,30.28,29.75,3,1,9,0.00
2013-11-23,40,34,29,39,23,-100,96,68,45,29.74,29.58,15,6,31,0.05
2013-11-24,28,23,20,18,8,5,67,53,45,29.85,29.56,16,10,38,0.04
2013-11-25,29,21,16,13,4,0,68,50,29,30.26,29.85,15,6,29,0.00
2013-11-26,36,31,22,31,27,13,96,85,61,30.26,30.15,7,1,12,0.07
2013-11-27,55,49,33,54,48,32,98,97,95,30.16,29.08,24,9,38,3.16
2013-11-28,44,30,20,43,22,8,95,72,46,30.31,29.16,16,7,28,0.36
2013-11-29,25,19,15,12,10,7,85,66,48,30.67,30.31,9,2,21,0.01
2013-11-30,33,19,10,25,11,-100,90,75,48,30.76,30.39,6,1,13,0.00
2013-12-1,40,36,32,39,33,26,97,92,77,30.40,30.05,6,1,14,0.30
2013-12-2,44,39,34,43,38,33,97,97,95,30.06,29.88,8,3,16,0.35
2013-12-3,41,38,33,40,36,30,98,96,93,29.89,29.76,7,1,17,0.07
2013-12-4,42,34,27,32,29,25,94,83,65,30.16,29.76,11,4,25,0.01
2013-12-5,49,36,24,48,34,23,98,94,88,30.24,29.88,7,2,14,0.03
2013-12-6,50,43,35,49,42,32,98,95,85,30.04,29.80,4,1,13,0.17
2013-12-7,37,31,24,32,20,-100,94,68,49,30.33,30.01,11,3,23,0.01
2013-12-8,26,22,16,14,11,7,83,63,45,30.55,30.32,12,3,24,0.01
2013-12-9,34,27,21,33,21,9,97,80,57,30.53,29.76,10,5,17,0.09
2013-12-10,33,27,19,32,25,15,97,91,75,29.81,29.66,6,1,14,0.11
2013-12-11,29,22,13,17,14,11,92,74,53,30.05,29.81,12,4,26,0.01
2013-12-12,20,12,6,14,4,-4,91,69,44,30.18,29.94,10,2,20,0.01
2013-12-13,24,16,3,12,3,-6,77,57,38,30.33,29.83,15,6,32,0.00
2013-12-14,12,6,-1,4,-6,-100,71,59,42,30.58,30.32,10,3,18,0.00
2013-12-15,23,15,10,22,13,4,94,89,72,30.41,29.28,12,6,24,0.00
2013-12-16,23,13,3,15,5,-5,92,72,48,30.14,29.59,13,4,27,0.00
2013-12-17,15,6,-8,13,0,-12,90,75,63,30.28,30.01,7,2,17,0.00
2013-12-18,23,18,10,19,16,8,92,89,82,30.01,29.76,7,2,17,0.00
2013-12-19,32,26,17,28,24,15,95,90,82,30.03,29.86,3,0,12,0.00
2013-12-20,34,30,24,32,29,23,97,95,92,30.11,29.88,3,0,6,0.00
2013-12-21,33,31,29,32,29,-100,97,96,96,29.93,29.79,4,1,10,0.18
2013-12-22,32,31,29,31,30,28,96,95,94,30.05,29.85,5,0,12,0.26
2013-12-23,32,30,28,31,29,27,97,96,95,30.07,29.99,0,0,0,0.01
2014-1-2,-3,-5,-7,-7,-9,-11,84,84,80,30.28,29.98,11,5,26,0.00